createdAt,value
2023-02-09T00:00:09.723Z,40.80
2023-02-09T00:02:45.689Z,39.25
2023-02-09T00:05:13.026Z,39.40
2023-02-09T00:07:40.429Z,38.45
2023-02-09T00:10:07.838Z,37.67
2023-02-09T00:12:57.275Z,38.45
2023-02-09T00:15:24.759Z,36.63
2023-02-09T00:17:51.983Z,39.10
2023-02-09T00:20:19.450Z,33.58
2023-02-09T00:22:48.438Z,39.60
2023-02-09T00:25:16.936Z,34.50
2023-02-09T00:27:44.458Z,36.55
2023-02-09T00:30:12.321Z,35.35
2023-02-09T00:32:39.572Z,32.72
2023-02-09T00:35:07.929Z,34.42
2023-02-09T00:37:35.884Z,35.35
2023-02-09T00:40:03.864Z,31.63
2023-02-09T00:42:31.389Z,31.02
2023-02-09T00:44:58.682Z,31.73
2023-02-09T00:47:26.268Z,30.88
2023-02-09T00:49:53.543Z,29.65
2023-02-09T00:52:20.791Z,29.40
2023-02-09T00:54:48.189Z,34.17
2023-02-09T00:57:17.127Z,34.22
2023-02-09T00:59:44.573Z,29.45
2023-02-09T01:02:11.879Z,35.00
2023-02-09T01:04:39.568Z,32.70
2023-02-09T01:07:07.010Z,33.22
2023-02-09T01:09:34.412Z,30.02
2023-02-09T01:12:01.861Z,32.13
2023-02-09T01:14:29.321Z,28.20
2023-02-09T01:16:58.991Z,32.22
2023-02-09T01:19:26.928Z,30.00
2023-02-09T01:21:55.534Z,32.45
2023-02-09T01:24:22.646Z,29.98
2023-02-09T01:26:49.945Z,36.15
2023-02-09T01:29:19.012Z,28.67
2023-02-09T01:31:47.722Z,32.17
2023-02-09T01:34:17.547Z,32.78
2023-02-09T01:36:45.566Z,32.33
2023-02-09T01:39:14.366Z,31.80
2023-02-09T01:41:42.633Z,32.40
2023-02-09T01:44:18.061Z,29.40
2023-02-09T01:46:47.363Z,30.48
2023-02-09T01:49:16.265Z,33.97
2023-02-09T01:51:49.266Z,28.27
2023-02-09T01:54:23.289Z,31.73
2023-02-09T01:56:55.485Z,30.23
2023-02-09T01:59:22.951Z,31.75
2023-02-09T02:01:51.228Z,28.55
2023-02-09T02:04:18.699Z,30.50
2023-02-09T02:06:46.517Z,31.73
2023-02-09T02:09:16.132Z,29.33
2023-02-09T02:11:46.524Z,30.60
2023-02-09T02:14:31.290Z,28.17
2023-02-09T02:17:21.115Z,31.85
2023-02-09T02:20:23.882Z,28.30
2023-02-09T02:23:05.830Z,30.27
2023-02-09T02:25:42.289Z,30.90
2023-02-09T02:28:11.570Z,31.95
2023-02-09T02:31:09.176Z,27.90
2023-02-09T02:33:41.673Z,30.17
2023-02-09T02:36:17.074Z,32.95
2023-02-09T02:38:55.758Z,30.25
2023-02-09T02:41:57.484Z,31.33
2023-02-09T02:44:27.687Z,31.23
2023-02-09T02:47:00.900Z,30.65
2023-02-09T02:49:36.242Z,29.70
2023-02-09T02:52:07.970Z,30.70
2023-02-09T02:54:41.424Z,26.73
2023-02-09T02:57:14.206Z,25.17
2023-02-09T02:59:47.284Z,32.85
2023-02-09T03:02:20.282Z,33.35
2023-02-09T03:04:51.181Z,29.75
2023-02-09T03:07:18.927Z,32.22
2023-02-09T03:09:51.681Z,30.20
2023-02-09T03:12:42.085Z,29.17
2023-02-09T03:15:21.071Z,31.17
2023-02-09T03:18:24.163Z,27.73
2023-02-09T03:20:54.057Z,28.65
2023-02-09T03:23:32.008Z,27.63
2023-02-09T03:26:07.113Z,31.98
2023-02-09T03:28:38.464Z,28.98
2023-02-09T03:31:06.238Z,34.05
2023-02-09T03:33:36.573Z,29.08
2023-02-09T03:36:09.707Z,30.08
2023-02-09T03:38:37.046Z,30.38
2023-02-09T03:41:04.974Z,31.25
2023-02-09T03:43:53.058Z,29.65
2023-02-09T03:46:20.579Z,32.45
2023-02-09T03:48:53.105Z,33.47
2023-02-09T03:51:20.453Z,33.25
2023-02-09T03:53:47.673Z,32.72
2023-02-09T03:56:15.010Z,28.38
2023-02-09T03:58:42.310Z,27.60
2023-02-09T04:01:11.694Z,29.45
2023-02-09T04:03:40.013Z,30.10
2023-02-09T04:06:09.988Z,31.30
2023-02-09T04:08:37.559Z,26.05
2023-02-09T04:11:05.098Z,29.23
2023-02-09T04:13:32.468Z,27.92
2023-02-09T04:15:59.731Z,30.30
2023-02-09T04:18:27.084Z,33.55
2023-02-09T04:20:54.396Z,31.60
2023-02-09T04:23:21.493Z,27.42
2023-02-09T04:25:48.770Z,30.80
2023-02-09T04:28:18.130Z,27.08
2023-02-09T04:30:45.689Z,29.85
2023-02-09T04:33:13.373Z,30.45
2023-02-09T04:35:40.564Z,27.85
2023-02-09T04:38:07.901Z,32.20
2023-02-09T04:40:35.153Z,37.53
2023-02-09T04:43:02.612Z,31.17
2023-02-09T04:45:29.723Z,35.67
2023-02-09T04:47:57.023Z,33.72
2023-02-09T04:50:24.203Z,40.13
2023-02-09T04:52:51.907Z,34.15
2023-02-09T04:55:19.112Z,31.40
2023-02-09T04:58:06.212Z,27.60
2023-02-09T05:00:33.536Z,29.30
2023-02-09T05:03:00.915Z,27.92
2023-02-09T05:05:28.596Z,36.45
2023-02-09T05:07:55.830Z,34.28
2023-02-09T05:10:23.282Z,36.90
2023-02-09T05:12:50.392Z,32.20
2023-02-09T05:15:18.462Z,33.08
2023-02-09T05:17:45.698Z,30.95
2023-02-09T05:20:12.970Z,32.38
2023-02-09T05:22:40.104Z,33.78
2023-02-09T05:25:07.282Z,33.65
2023-02-09T05:27:34.787Z,33.75
2023-02-09T05:30:02.058Z,32.97
2023-02-09T05:32:29.243Z,34.08
2023-02-09T05:34:56.503Z,35.10
2023-02-09T05:37:23.841Z,34.72
2023-02-09T05:39:51.549Z,29.35
2023-02-09T05:42:18.823Z,49.80
2023-02-09T05:44:48.512Z,49.58
2023-02-09T05:47:18.153Z,40.38
2023-02-09T05:49:45.508Z,41.67
2023-02-09T05:52:13.778Z,42.78
2023-02-09T05:54:40.971Z,46.33
2023-02-09T05:57:08.734Z,43.58
2023-02-09T05:59:36.085Z,37.38
2023-02-09T06:02:03.457Z,38.55
2023-02-09T06:04:31.175Z,36.05
2023-02-09T06:06:58.473Z,36.75
2023-02-09T06:09:25.654Z,42.65
2023-02-09T06:11:52.812Z,43.55
2023-02-09T06:14:20.303Z,43.47
2023-02-09T06:16:50.256Z,43.75
2023-02-09T06:19:20.115Z,48.20
2023-02-09T06:21:48.153Z,41.60
2023-02-09T06:24:17.286Z,38.17
2023-02-09T06:26:44.710Z,36.63
2023-02-09T06:29:12.027Z,37.15
2023-02-09T06:31:42.284Z,36.60
2023-02-09T06:34:10.496Z,32.78
2023-02-09T06:36:37.674Z,34.75
2023-02-09T06:39:08.715Z,38.00
2023-02-09T06:41:36.514Z,38.63
2023-02-09T06:44:04.429Z,39.30
2023-02-09T06:46:31.561Z,36.08
2023-02-09T06:48:59.615Z,37.83
2023-02-09T06:51:27.049Z,37.97
2023-02-09T06:53:54.380Z,31.08
2023-02-09T06:56:21.748Z,33.67
2023-02-09T06:58:49.012Z,26.38
2023-02-09T07:01:16.316Z,27.10
2023-02-09T07:03:44.094Z,25.92
2023-02-09T07:06:14.151Z,27.90
2023-02-09T07:08:42.133Z,28.67
2023-02-09T07:11:12.209Z,28.15
2023-02-09T07:13:39.325Z,27.85
2023-02-09T07:16:09.000Z,29.65
2023-02-09T07:18:37.597Z,24.38
2023-02-09T07:21:08.040Z,29.13
2023-02-09T07:23:36.120Z,27.08
2023-02-09T07:26:05.291Z,32.63
2023-02-09T07:28:35.338Z,28.45
2023-02-09T07:31:06.926Z,29.77
2023-02-09T07:33:35.426Z,29.73
2023-02-09T07:36:05.889Z,27.95
2023-02-09T07:38:34.028Z,30.55
2023-02-09T07:41:03.328Z,36.30
2023-02-09T07:43:30.978Z,31.13
2023-02-09T07:46:07.888Z,33.13
2023-02-09T07:48:36.832Z,32.60
2023-02-09T07:51:05.093Z,33.00
2023-02-09T07:53:32.928Z,31.30
2023-02-09T07:56:00.086Z,28.20
2023-02-09T07:58:27.376Z,27.17
2023-02-09T08:00:54.538Z,31.20
2023-02-09T08:03:24.103Z,28.80
2023-02-09T08:06:19.621Z,33.20
2023-02-09T08:08:49.298Z,31.75
2023-02-09T08:11:20.413Z,27.50
2023-02-09T08:13:48.784Z,31.00
2023-02-09T08:16:20.061Z,29.63
2023-02-09T08:18:54.301Z,32.10
2023-02-09T08:21:22.426Z,31.33
2023-02-09T08:23:54.636Z,31.25
2023-02-09T08:26:22.153Z,31.15
2023-02-09T08:28:50.113Z,29.95
2023-02-09T08:31:19.688Z,31.50
2023-02-09T08:33:48.587Z,34.47
2023-02-09T08:36:17.827Z,31.83
2023-02-09T08:38:45.470Z,31.92
2023-02-09T08:41:15.065Z,29.27
2023-02-09T08:43:42.477Z,25.92
2023-02-09T08:46:13.324Z,28.83
2023-02-09T08:48:42.931Z,25.65
2023-02-09T08:51:12.554Z,25.90
2023-02-09T08:53:40.258Z,32.97
2023-02-09T08:56:08.140Z,27.00
2023-02-09T08:58:35.419Z,27.90
2023-02-09T09:01:03.297Z,25.65
2023-02-09T09:03:31.847Z,25.42
2023-02-09T09:06:00.020Z,27.30
2023-02-09T09:08:28.223Z,28.88
2023-02-09T09:10:55.826Z,26.85
2023-02-09T09:13:24.418Z,25.23
2023-02-09T09:15:52.813Z,28.90
2023-02-09T09:18:20.157Z,26.50
2023-02-09T09:20:47.661Z,24.08
2023-02-09T09:23:15.143Z,26.00
2023-02-09T09:25:43.195Z,23.75
2023-02-09T09:28:10.574Z,23.90
2023-02-09T09:30:38.132Z,25.15
2023-02-09T09:33:05.740Z,25.67
2023-02-09T09:35:33.369Z,26.52
2023-02-09T09:38:00.988Z,26.73
2023-02-09T09:40:31.518Z,25.58
2023-02-09T09:43:02.959Z,23.27
2023-02-09T09:45:35.545Z,27.58
2023-02-09T09:48:03.248Z,23.27
2023-02-09T09:50:37.905Z,24.25
2023-02-09T09:55:40.060Z,23.52
2023-02-09T09:58:08.242Z,23.20
2023-02-09T10:00:40.119Z,20.95
2023-02-09T10:03:17.369Z,26.00
2023-02-09T10:05:50.038Z,23.50
2023-02-09T10:08:51.775Z,25.15
2023-02-09T10:11:29.022Z,21.45
2023-02-09T10:13:58.076Z,26.10
2023-02-09T10:16:29.200Z,23.33
2023-02-09T10:18:59.055Z,22.80
2023-02-09T10:21:30.007Z,25.98
2023-02-09T10:24:00.531Z,22.65
2023-02-09T10:26:31.979Z,23.25
2023-02-09T10:29:20.768Z,23.65
2023-02-09T10:31:54.986Z,24.98
2023-02-09T10:34:29.992Z,23.63
2023-02-09T10:37:24.632Z,26.45
2023-02-09T10:39:59.147Z,25.38
2023-02-09T10:44:58.909Z,25.42
2023-02-09T10:47:32.717Z,23.73
2023-02-09T10:50:12.576Z,28.67
2023-02-09T10:52:45.135Z,23.58
2023-02-09T10:55:35.655Z,24.42
2023-02-09T10:58:10.922Z,22.23
2023-02-09T11:00:44.045Z,24.52
2023-02-09T11:03:18.530Z,23.55
2023-02-09T11:05:48.044Z,24.25
2023-02-09T11:08:18.705Z,22.00
2023-02-09T11:11:02.941Z,21.15
2023-02-09T11:13:32.352Z,22.77
2023-02-09T11:16:07.399Z,21.42
2023-02-09T11:18:35.459Z,21.17
2023-02-09T11:21:15.228Z,21.88
2023-02-09T11:23:50.262Z,19.13
2023-02-09T11:26:42.652Z,19.98
2023-02-09T11:29:32.395Z,20.13
2023-02-09T11:32:13.555Z,21.63
2023-02-09T11:34:56.819Z,20.83
2023-02-09T11:37:34.404Z,21.27
2023-02-09T11:40:29.353Z,18.35
2023-02-09T11:43:07.643Z,18.63
2023-02-09T11:45:39.500Z,21.50
2023-02-09T11:48:32.608Z,19.08
2023-02-09T11:51:26.889Z,21.35
2023-02-09T11:54:18.701Z,19.17
2023-02-09T11:56:58.596Z,17.70
2023-02-09T11:59:37.617Z,18.60
2023-02-09T12:02:37.542Z,17.92
2023-02-09T12:05:08.428Z,20.48
2023-02-09T12:07:42.549Z,18.55
2023-02-09T12:10:49.708Z,20.02
2023-02-09T12:13:39.518Z,18.77
2023-02-09T12:16:18.287Z,17.58
2023-02-09T12:18:46.498Z,18.10
2023-02-09T12:21:26.057Z,18.65
2023-02-09T12:23:53.373Z,18.30
2023-02-09T12:26:21.537Z,16.50
2023-02-09T12:29:08.787Z,16.42
2023-02-09T12:32:11.836Z,19.15
2023-02-09T12:34:49.749Z,19.60
2023-02-09T12:37:20.328Z,21.48
2023-02-09T12:40:07.437Z,18.65
2023-02-09T12:42:46.118Z,17.75
2023-02-09T12:45:53.012Z,19.13
2023-02-09T12:48:21.820Z,17.42
2023-02-09T12:50:52.652Z,18.42
2023-02-09T12:53:23.464Z,21.55
2023-02-09T12:56:11.895Z,22.30
2023-02-09T12:59:14.522Z,20.95
2023-02-09T13:02:02.699Z,19.20
2023-02-09T13:04:34.997Z,16.20
2023-02-09T13:07:07.955Z,17.67
2023-02-09T13:09:40.878Z,18.17
2023-02-09T13:12:14.846Z,19.35
2023-02-09T13:14:45.478Z,11.85
2023-02-09T13:17:28.186Z,16.85
2023-02-09T13:20:12.571Z,17.25
2023-02-09T13:22:57.240Z,16.67
2023-02-09T13:25:37.739Z,15.80
2023-02-09T13:28:16.978Z,15.27
2023-02-09T13:30:45.764Z,15.43
2023-02-09T13:33:32.814Z,15.02
2023-02-09T13:36:01.216Z,17.17
2023-02-09T13:38:32.771Z,14.85
2023-02-09T13:41:00.190Z,16.50
2023-02-09T13:43:32.475Z,18.20
2023-02-09T13:46:02.255Z,14.68
2023-02-09T13:48:34.223Z,13.50
2023-02-09T13:51:05.092Z,13.90
2023-02-09T13:53:32.446Z,14.82
2023-02-09T13:56:01.360Z,12.57
2023-02-09T13:58:35.582Z,13.88
2023-02-09T14:01:06.622Z,12.20
2023-02-09T14:03:56.772Z,12.20
2023-02-09T14:06:32.619Z,11.80
2023-02-09T14:09:01.570Z,10.57
2023-02-09T14:11:49.821Z,12.25
2023-02-09T14:15:01.068Z,13.80
2023-02-09T14:17:31.618Z,9.80
2023-02-09T14:19:59.942Z,10.43
2023-02-09T14:22:30.515Z,11.50
2023-02-09T14:24:58.295Z,13.45
2023-02-09T14:27:28.395Z,12.75
2023-02-09T14:29:56.844Z,11.05
2023-02-09T14:32:35.705Z,12.90
2023-02-09T14:35:22.101Z,13.00
2023-02-09T14:37:51.087Z,11.48
2023-02-09T14:40:37.444Z,14.20
2023-02-09T14:43:12.034Z,14.10
2023-02-09T14:48:25.323Z,14.23
2023-02-09T14:50:56.252Z,15.50
2023-02-09T14:53:26.874Z,15.68
2023-02-09T14:55:54.930Z,12.95
2023-02-09T14:58:27.520Z,13.70
2023-02-09T15:00:57.232Z,15.95
2023-02-09T15:03:24.724Z,13.68
2023-02-09T15:05:56.235Z,15.02
2023-02-09T15:08:25.949Z,12.75
2023-02-09T15:10:57.713Z,17.48
2023-02-09T15:13:27.607Z,14.32
2023-02-09T15:15:55.181Z,12.77
2023-02-09T15:18:25.521Z,12.80
2023-02-09T15:20:53.121Z,12.60
2023-02-09T15:23:20.580Z,14.77
2023-02-09T15:25:48.603Z,11.43
2023-02-09T15:28:28.491Z,11.38
2023-02-09T15:30:58.425Z,11.05
2023-02-09T15:33:27.404Z,11.98
2023-02-09T15:35:55.018Z,15.48
2023-02-09T15:38:22.889Z,12.55
2023-02-09T15:41:10.786Z,13.50
2023-02-09T15:43:58.208Z,14.43
2023-02-09T15:46:45.501Z,14.88
2023-02-09T15:49:13.175Z,14.07
2023-02-09T15:51:41.189Z,12.40
2023-02-09T15:54:14.699Z,10.70
2023-02-09T15:56:41.987Z,12.02
2023-02-09T15:59:18.541Z,11.88
2023-02-09T16:01:45.920Z,11.18
2023-02-09T16:04:14.613Z,9.90
2023-02-09T16:06:51.573Z,10.43
2023-02-09T16:09:23.543Z,12.00
2023-02-09T16:11:51.139Z,10.38
2023-02-09T16:14:21.812Z,11.57
2023-02-09T16:16:49.614Z,15.07
2023-02-09T16:19:17.361Z,12.50
2023-02-09T16:21:49.012Z,10.60
2023-02-09T16:24:41.420Z,12.75
2023-02-09T16:27:23.697Z,12.70
2023-02-09T16:29:51.189Z,11.75
2023-02-09T16:32:22.137Z,15.65
2023-02-09T16:34:50.583Z,12.23
2023-02-09T16:37:29.012Z,12.52
2023-02-09T16:39:58.407Z,14.90
2023-02-09T16:42:26.051Z,13.20
2023-02-09T16:44:53.673Z,12.90
2023-02-09T16:47:26.736Z,19.15
2023-02-09T16:50:01.636Z,12.63
2023-02-09T16:52:30.512Z,14.18
2023-02-09T16:55:00.238Z,18.25
2023-02-09T16:57:28.905Z,38.63
2023-02-09T16:59:56.457Z,28.33
2023-02-09T17:02:42.379Z,26.88
2023-02-09T17:05:20.674Z,21.48
2023-02-09T17:07:55.000Z,24.20
2023-02-09T17:10:26.107Z,22.65
2023-02-09T17:12:53.972Z,22.10
2023-02-09T17:15:30.552Z,18.05
2023-02-09T17:18:04.027Z,18.77
2023-02-09T17:20:37.553Z,24.67
2023-02-09T17:23:05.818Z,20.15
2023-02-09T17:25:33.795Z,21.63
2023-02-09T17:28:01.120Z,25.02
2023-02-09T17:30:28.337Z,27.30
2023-02-09T17:33:01.583Z,23.35
2023-02-09T17:35:58.124Z,26.52
2023-02-09T17:38:23.993Z,23.13
2023-02-09T17:43:19.531Z,26.35
2023-02-09T17:45:49.488Z,25.52
2023-02-09T17:48:18.551Z,23.67
2023-02-09T17:50:48.439Z,25.95
2023-02-09T17:53:19.459Z,65.60
2023-02-09T17:55:47.863Z,32.88
2023-02-09T17:58:16.480Z,28.80
2023-02-09T18:00:45.342Z,24.70
2023-02-09T18:03:16.811Z,34.13
2023-02-09T18:05:44.726Z,25.65
2023-02-09T18:08:12.206Z,28.27
2023-02-09T18:10:39.532Z,30.67
2023-02-09T18:13:06.658Z,27.80
2023-02-09T18:15:36.650Z,34.42
2023-02-09T18:18:04.694Z,26.55
2023-02-09T18:20:33.919Z,25.88
2023-02-09T18:23:02.827Z,27.00
2023-02-09T18:25:33.705Z,24.73
2023-02-09T18:28:01.955Z,27.95
2023-02-09T18:30:31.810Z,26.23
2023-02-09T18:32:59.871Z,27.27
2023-02-09T18:35:36.491Z,27.85
2023-02-09T18:38:05.516Z,23.27
2023-02-09T18:40:33.254Z,27.38
2023-02-09T18:43:04.108Z,28.17
2023-02-09T18:45:32.321Z,26.73
2023-02-09T18:48:00.176Z,27.95
2023-02-09T18:50:32.843Z,27.17
2023-02-09T18:53:03.185Z,27.08
2023-02-09T18:55:33.185Z,27.67
2023-02-09T18:58:02.543Z,39.78
2023-02-09T19:00:30.456Z,43.17
2023-02-09T19:02:58.216Z,45.75
2023-02-09T19:05:32.230Z,54.83
2023-02-09T19:07:59.791Z,47.17
2023-02-09T19:10:27.762Z,45.13
2023-02-09T19:12:55.731Z,41.20
2023-02-09T19:15:25.905Z,31.65
2023-02-09T19:17:56.391Z,29.27
2023-02-09T19:20:26.714Z,31.20
2023-02-09T19:22:54.812Z,28.98
2023-02-09T19:25:25.281Z,28.58
2023-02-09T19:27:53.853Z,27.60
2023-02-09T19:30:25.208Z,30.58
2023-02-09T19:32:54.452Z,27.90
2023-02-09T19:35:24.000Z,38.38
2023-02-09T19:37:56.069Z,34.10
2023-02-09T19:40:33.919Z,35.30
2023-02-09T19:43:01.346Z,38.22
2023-02-09T19:45:36.232Z,32.95
2023-02-09T19:48:06.864Z,33.55
2023-02-09T19:50:34.804Z,29.80
2023-02-09T19:53:03.062Z,32.40
2023-02-09T19:55:30.171Z,27.95
2023-02-09T19:57:57.479Z,25.98
2023-02-09T20:00:24.771Z,27.98
2023-02-09T20:02:51.924Z,25.27
2023-02-09T20:05:19.335Z,28.40
2023-02-09T20:07:48.852Z,30.98
2023-02-09T20:10:16.419Z,26.92
2023-02-09T20:15:16.434Z,29.23
2023-02-09T20:17:44.455Z,30.33
2023-02-09T20:20:12.594Z,33.63
2023-02-09T20:22:40.059Z,30.65
2023-02-09T20:25:07.936Z,28.60
2023-02-09T20:27:35.276Z,32.85
2023-02-09T20:30:04.793Z,29.45
2023-02-09T20:32:32.161Z,31.90
2023-02-09T20:34:59.924Z,31.50
2023-02-09T20:37:28.407Z,29.50
2023-02-09T20:39:56.192Z,33.00
2023-02-09T20:42:43.592Z,35.97
2023-02-09T20:45:36.255Z,35.35
2023-02-09T20:48:05.224Z,41.17
2023-02-09T20:50:34.409Z,32.58
2023-02-09T20:53:01.824Z,31.08
2023-02-09T20:55:30.651Z,30.38
2023-02-09T20:57:58.135Z,31.77
2023-02-09T21:00:25.758Z,31.45
2023-02-09T21:02:53.207Z,29.48
2023-02-09T21:05:20.827Z,33.70
2023-02-09T21:07:50.631Z,29.10
2023-02-09T21:10:18.269Z,32.75
2023-02-09T21:12:46.693Z,30.67
2023-02-09T21:15:14.283Z,32.70
2023-02-09T21:17:47.570Z,32.05
2023-02-09T21:20:17.421Z,32.92
2023-02-09T21:22:44.636Z,42.28
2023-02-09T21:25:11.978Z,32.90
2023-02-09T21:27:39.404Z,37.08
2023-02-09T21:30:07.037Z,35.42
2023-02-09T21:32:35.091Z,39.97
2023-02-09T21:35:02.695Z,43.78
2023-02-09T21:37:32.454Z,37.67
2023-02-09T21:40:03.165Z,36.78
2023-02-09T21:42:31.520Z,33.22
2023-02-09T21:44:59.865Z,36.92
2023-02-09T21:47:29.447Z,40.42
2023-02-09T21:49:57.966Z,40.22
2023-02-09T21:52:26.362Z,45.58
2023-02-09T21:54:54.080Z,48.33
2023-02-09T21:57:21.697Z,34.97
2023-02-09T21:59:49.052Z,33.45
2023-02-09T22:02:20.543Z,32.40
2023-02-09T22:04:50.263Z,34.60
2023-02-09T22:07:17.609Z,34.20
2023-02-09T22:09:45.762Z,33.08
2023-02-09T22:12:12.917Z,31.83
2023-02-09T22:14:40.079Z,33.17
2023-02-09T22:17:07.486Z,32.08
2023-02-09T22:19:35.265Z,27.08
2023-02-09T22:22:02.476Z,28.23
2023-02-09T22:24:30.320Z,28.33
2023-02-09T22:26:57.535Z,28.17
2023-02-09T22:29:25.176Z,31.75
2023-02-09T22:31:52.533Z,29.63
2023-02-09T22:34:19.675Z,26.10
2023-02-09T22:36:50.535Z,29.67
2023-02-09T22:39:17.908Z,25.73
2023-02-09T22:41:47.580Z,27.20
2023-02-09T22:44:16.268Z,28.55
2023-02-09T22:46:44.445Z,26.35
2023-02-09T22:49:20.444Z,23.55
2023-02-09T22:51:49.224Z,22.48
2023-02-09T22:54:18.446Z,25.17
2023-02-09T22:56:46.098Z,26.55
2023-02-09T22:59:14.625Z,27.05
2023-02-09T23:01:42.391Z,26.25
2023-02-09T23:04:10.307Z,27.15
2023-02-09T23:06:37.710Z,29.05
2023-02-09T23:09:07.669Z,26.45
2023-02-09T23:11:35.440Z,27.63
2023-02-09T23:14:09.719Z,27.20
2023-02-09T23:16:39.752Z,29.67
2023-02-09T23:19:09.629Z,26.90
2023-02-09T23:21:40.914Z,28.75
2023-02-09T23:24:10.068Z,29.23
2023-02-09T23:26:37.882Z,33.25
2023-02-09T23:29:08.113Z,32.45
2023-02-09T23:31:36.040Z,27.85
2023-02-09T23:34:03.380Z,29.30
2023-02-09T23:36:31.666Z,31.85
2023-02-09T23:39:01.813Z,31.30
2023-02-09T23:41:29.582Z,30.23
2023-02-09T23:43:57.468Z,29.25
2023-02-09T23:46:28.633Z,31.50
2023-02-09T23:48:56.762Z,29.92
2023-02-09T23:51:28.660Z,31.25
2023-02-09T23:53:58.137Z,31.00
2023-02-09T23:56:26.115Z,33.05
2023-02-09T23:58:54.645Z,34.20
